Aktualne dane pomiarowe

Uwaga, wersja testowa! Automatyczne pobieranie danych za pomocą narzędzi lub skryptów to umożliwiających jest zabronione.

Dane meteo z obszaru Polski uzyskane na podstawie depesz SYNOP pobieranych co godzinę z NWS. Najedź myszką na symbol przedstawiony w tabeli, aby uzyskać informacje co do jego znaczenia. Prosimy pamiętać, że to testowa wersja strony, która jeszcze nie jest ukończona. Stworzono również jest krótki FAQ dotyczący korzystania z tej podstrony Anomalie temperatury w chwili obecnej odniesione są do okresu referencyjnego 1951-2016. Okres ten będzie później zmieniony na 1981-2010. Kliknij ikonę aby pobrać plik CSV. Kliknij ikonę aby wygenerować mapę synoptyczną dla danego terminu.

Wybierz Datę:    

        

Kasprowy Wierch (12650)

Dane terminowe dla wybranej stacji. Kliknij datę, aby otrzymać dane z tego terminu dla wszystkich stacji.

TemperaturaZachmurzenieWiatrCiśnienieOpadyPogoda
 Data t td wb tx tn tg rh  Nt Nl Cl Cm Ch ws wd g1 g2 wx mslp ppp ch 24h 12h t ww ww w1 w2  
2019-06-22 23:00:00 8.5 8.1 8.2--- 9730.0wxwxwxwx5wx--5- 805.0 -0.5---------
2019-06-22 22:00:00 8.5 8.4 8.4--- 9910.0wxwxwx4wx--4- 805.1 -0.2---wx-w1--
2019-06-22 21:00:00 8.4 8.4 8.3--- 1000.1wxwxwx5wx--5- 805.1 -0.2---wx-w1w2--
2019-06-22 20:00:00 8.7 8.7 8.6--- 1000.1wxwxwx2wx--2- 805.5 -0.2---wx-w1w2--
2019-06-22 19:00:00 9.1 9.1 9.0--- 1000.1wxwxwx6wx--6- 805.3 -0.9---wx-w1w2--
2019-06-22 18:00:00 9.5 9.5 9.4 10.8 8.6- 1000.1wx-5wx--5- 805.3 -0.8- 6.012wx-w1w2--
2019-06-22 17:00:00 9.6 9.6 9.5--- 1000.1wx-4wx--4- 805.7 -0.5---wx-w1w2--
2019-06-22 16:00:00 10.0 10.0 9.9--- 1000.1wx-2wx--2- 806.2 -0.4---wx-w1w2--
2019-06-22 15:00:00 10.3 10.3 10.2--- 1000.1wxwxwx2wx--2- 806.1 -0.9---wx-w1w2--
2019-06-22 14:00:00 10.3 10.3 10.2--- 1000.1wx-4wx--4- 806.2 -1.1---wx-w1w2--
2019-06-22 13:00:00 9.7 9.7 9.6--- 1000.1wx-3wx--3- 806.6 -0.5---wx-w1w2--
2019-06-22 12:00:00 9.4 9.4 9.3--- 1000.1wx-1wx---- 807.0 0.0---wx-w1w2--
2019-06-22 11:00:00 10.0 10.0 9.9--- 1000.1wx-2wx---- 807.3 0.7---wx-w1w2--
2019-06-22 10:00:00 9.6 9.6 9.5--- 1000.1wx-4wx--4- 807.1 0.6---wx-w1w2--
2019-06-22 09:00:00 9.4 9.4 9.3--- 1000.1wx-3wx--3- 807.0 0.6---wx-w1w2--
2019-06-22 08:00:00 9.6 9.6 9.5--- 1000.1wx-3wx--3- 806.6 0.6---wx-w1w2--
2019-06-22 07:00:00 9.3 9.3 9.2--- 1000.1wx-4wx--4- 806.5 0.6---wx-w1w2--
2019-06-22 06:00:00 8.8 8.8 8.7 9.6 8.0- 1000.1wx-4wx--4- 806.4 0.5 2.7 0.012wx-w1- 0.7
2019-06-22 05:00:00 8.5 8.5 8.4--- 1000.1wx-5wx--5- 806.0 0.4---wx-w1w2--
2019-06-22 04:00:00 8.2 8.2 8.1--- 1000.1wx-4wx--4- 805.9 0.7---wx-w1w2--
2019-06-22 03:00:00 8.4 8.4 8.3--- 1000.1wx-3wx--3- 805.9 0.7---wx-w1--
2019-06-22 02:00:00 8.4 8.4 8.3--- 1000.1wx-4wx--4- 805.6 0.4---wx-w1w2--
2019-06-22 01:00:00 8.5 8.5 8.4--- 1000.1wx-5wx--5- 805.2 -0.1---wx---
2019-06-22 00:00:00 8.7 8.6 8.6--- 9920.0wxwxwxwxwx5wx--5- 805.2 0.0- 0.06wx-w1--
2019-06-21 23:00:00 9.2 8.0 8.3--- 9220.0wxwxwxwxwx3wx--3- 805.2 0.3---wx-w1--
2019-06-21 22:00:00 8.9 8.9 8.8--- 1000.1wx-3wx--3- 805.3 0.5---wx-w1w2--
2019-06-21 21:00:00 9.3 9.3 9.2--- 1000.1wx-4wx--4- 805.2 0.6---wx-w1w2--
2019-06-21 20:00:00 9.4 9.4 9.3--- 1000.1wx-5wx--5- 804.9 0.6---wx-w1w2--
2019-06-21 19:00:00 9.3 9.3 9.2--- 1000.1wx-5wx--5- 804.8 0.7---wx-w1w2--
2019-06-21 18:00:00 9.6 9.5 9.5 13.3 9.2- 990.1wx-4wx--4- 804.6 0.4- 3.012wx-w1w2--
2019-06-21 17:00:00 10.2 9.3 9.5--- 9410.0wxwxwxwxwx2wx---- 804.3 0.0---wx-w1w2--
2019-06-21 16:00:00 10.6 10.3 10.3--- 980.1wx-5wx--5- 804.1 -0.3---wx-w1--
2019-06-21 15:00:00 11.9 10.3 10.8--- 9010.0wxwxwxwx2wx---- 804.2 0.2---wx-w1w2--
2019-06-21 14:00:00 10.7 9.5 9.8--- 9210.0wxwxwx3wx--3- 804.3 0.1---------
2019-06-21 13:00:00 10.6 10.0 10.1--- 9610.0wxwxwx2wx--2- 804.4 0.1---wx-w1--
2019-06-21 12:00:00 10.1 9.9 9.9--- 9910.0wxwxwx4wx--4- 804.0 -0.3- 2.06wx-w1w2--
2019-06-21 11:00:00 11.3 9.9 10.3--- 9110.0wxwxwx4wx---- 804.2 0.0---wx---
2019-06-21 10:00:00 13.1 9.3 10.7--- 7810.0wxwxwxwx1wx---- 804.3 0.5---------
2019-06-21 09:00:00 10.4 9.3 9.6--- 9310.0wxwxwx3wx--3- 804.3 0.7---wx-w1w2--
2019-06-21 08:00:00 10.3 9.5 9.7--- 950.1wx-2wx--2- 804.2 1.0---wx-w1w2--
2019-06-21 07:00:00 10.0 9.2 9.4--- 950.1wx-2wx--2- 803.8 0.6---wx-w1w2--
2019-06-21 06:00:00 10.3 10.1 10.1 10.5 9.2- 990.1wx-3wx--3- 803.6 0.7 8.5 0.712wx-w1- 1.2
2019-06-21 05:00:00 10.1 9.2 9.4--- 9430.0wxwxwx2wx--2- 803.2 0.5---------
2019-06-21 04:00:00 9.9 8.8 9.1--- 9330.0wxwxwxwx2wx--2- 803.2 0.7---wx-w1--
2019-06-21 03:00:00 9.8 8.6 8.9--- 9230.0wxwxwxwx2wx--2- 802.9 0.7---wx---
2019-06-21 02:00:00 10.3 7.5 8.5--- 8330.0wxwxwxwx2wx--2- 802.7 0.4---------
2019-06-21 01:00:00 10.3 7.2 8.3--- 8130.0wxwxwxwx2wx--2- 802.5 0.0---------
2019-06-21 00:00:00 10.2 7.3 8.3--- 8230.0wxwxwxwx2wx--2- 802.2 -0.1- 0.26wx-w1w2--
1.1 ms

 

Print Friendly, PDF & Email